Time;durP1;ratioP1;P1;durP2;ratioP2;P2;SDS_P1;SDS_P2;PMS_P1;PMS_P2;Temp;Humidity;BMP_temperature;BMP_pressure;BME280_temperature;BME280_humidity;BME280_pressure;Samples;Min_cycle;Max_cycle;Signal;HPM_P1;HPM_P2
2023/05/04 00:02:02;;;;;;;5.57;4.20;;;;;;;;;;5075273;28;20051;-84
2023/05/04 00:04:28;;;;;;;6.00;4.53;;;;;;;;;;5075344;28;20131;-84
2023/05/04 00:06:55;;;;;;;5.20;4.22;;;;;;;;;;5073906;28;20049;-84
2023/05/04 00:09:21;;;;;;;5.30;4.40;;;;;;;;;;5073887;28;20526;-84
2023/05/04 00:11:47;;;;;;;6.43;5.03;;;;;;;;;;5076462;28;20071;-84
2023/05/04 00:14:13;;;;;;;4.38;3.92;;;;;;;;;;5076404;28;20558;-84
2023/05/04 00:16:39;;;;;;;4.88;4.30;;;;;;;;;;5076890;28;20052;-84
2023/05/04 00:19:05;;;;;;;4.95;4.28;;;;;;;;;;5094772;28;20126;-85
2023/05/04 00:21:31;;;;;;;5.03;4.55;;;;;;;;;;5094954;28;20047;-84
2023/05/04 00:23:57;;;;;;;6.47;3.75;;;;;;;;;;5094574;28;20488;-83
2023/05/04 00:26:23;;;;;;;5.78;4.45;;;;;;;;;;5076553;28;20442;-84
2023/05/04 00:28:49;;;;;;;4.97;4.35;;;;;;;;;;5108425;28;20039;-85
2023/05/04 00:31:17;;;;;;;6.78;4.22;;;;;;;;;;5096826;28;20047;-84
2023/05/04 00:33:44;;;;;;;5.68;4.47;;;;;;;;;;5097047;28;20157;-84
2023/05/04 00:36:10;;;;;;;8.88;4.75;;;;;;;;;;5114958;28;20044;-84
2023/05/04 00:38:49;;;;;;;5.93;4.82;;;;;;;;;;5096798;28;20148;-84
2023/05/04 00:41:16;;;;;;;6.53;4.50;;;;;;;;;;5115014;28;20047;-85
2023/05/04 00:43:42;;;;;;;5.22;4.70;;;;;;;;;;5063204;28;20063;-84
2023/05/04 00:46:09;;;;;;;8.82;5.07;;;;;;;;;;5096589;28;20051;-84
2023/05/04 00:48:35;;;;;;;7.53;4.68;;;;;;;;;;5114222;28;20044;-84
2023/05/04 00:51:02;;;;;;;5.57;4.63;;;;;;;;;;5114603;28;20052;-86
2023/05/04 00:53:28;;;;;;;6.90;5.20;;;;;;;;;;5096636;28;20504;-85
2023/05/04 00:55:54;;;;;;;5.68;4.97;;;;;;;;;;5096207;28;20051;-84
2023/05/04 00:58:20;;;;;;;6.13;4.97;;;;;;;;;;5114370;28;20040;-85
2023/05/04 01:00:47;;;;;;;7.72;5.45;;;;;;;;;;5080042;28;20082;-84
2023/05/04 01:03:13;;;;;;;6.00;5.50;;;;;;;;;;5096514;28;20085;-85
2023/05/04 01:05:42;;;;;;;6.45;5.60;;;;;;;;;;5113973;28;20491;-84
2023/05/04 01:08:17;;;;;;;8.25;5.68;;;;;;;;;;5113990;28;20067;-84
2023/05/04 01:10:46;;;;;;;5.78;5.22;;;;;;;;;;5114063;28;20057;-84
2023/05/04 01:13:15;;;;;;;10.05;5.72;;;;;;;;;;5114115;28;20138;-84
2023/05/04 01:15:41;;;;;;;7.20;5.18;;;;;;;;;;5096204;28;20078;-85
2023/05/04 01:18:07;;;;;;;5.90;5.50;;;;;;;;;;5096041;28;20134;-84
2023/05/04 01:20:34;;;;;;;5.38;4.82;;;;;;;;;;5079404;28;20491;-84
2023/05/04 01:23:01;;;;;;;7.68;5.57;;;;;;;;;;5095785;28;20048;-84
2023/05/04 01:25:32;;;;;;;6.45;5.82;;;;;;;;;;5114058;28;20043;-84
2023/05/04 01:27:58;;;;;;;9.88;5.55;;;;;;;;;;5113369;28;20134;-84
2023/05/04 01:30:33;;;;;;;6.82;5.57;;;;;;;;;;5113907;28;20097;-84
2023/05/04 01:33:00;;;;;;;6.60;5.47;;;;;;;;;;5113827;28;20058;-84
2023/05/04 01:35:26;;;;;;;8.70;5.90;;;;;;;;;;5095887;28;20407;-84
2023/05/04 01:37:53;;;;;;;8.27;6.13;;;;;;;;;;5113843;28;20043;-84
2023/05/04 01:40:19;;;;;;;11.05;6.25;;;;;;;;;;5095825;28;20062;-84
2023/05/04 01:42:45;;;;;;;9.13;5.85;;;;;;;;;;5095652;28;20047;-84
2023/05/04 01:45:11;;;;;;;7.90;5.85;;;;;;;;;;5113509;28;20134;-83
2023/05/04 01:47:37;;;;;;;8.48;6.32;;;;;;;;;;5113633;28;20062;-84
2023/05/04 01:50:04;;;;;;;7.80;6.80;;;;;;;;;;5095674;28;20101;-85
2023/05/04 01:52:30;;;;;;;8.77;6.88;;;;;;;;;;5095385;28;20364;-85
2023/05/04 01:54:56;;;;;;;9.65;6.50;;;;;;;;;;5078796;28;20471;-84
2023/05/04 01:57:22;;;;;;;8.75;6.72;;;;;;;;;;5113724;28;20066;-84
2023/05/04 01:59:48;;;;;;;7.50;6.63;;;;;;;;;;5095073;28;20394;-84
2023/05/04 02:02:15;;;;;;;9.85;7.20;;;;;;;;;;5113583;28;20152;-84
2023/05/04 02:04:41;;;;;;;9.48;7.00;;;;;;;;;;5078766;28;20495;-84
2023/05/04 02:07:07;;;;;;;6.40;5.80;;;;;;;;;;5113832;28;20052;-84
2023/05/04 02:09:34;;;;;;;7.85;7.13;;;;;;;;;;5113890;28;20142;-84
2023/05/04 02:12:00;;;;;;;8.60;7.43;;;;;;;;;;5078075;28;20120;-85
2023/05/04 02:14:26;;;;;;;12.23;6.85;;;;;;;;;;5095677;28;20083;-84
2023/05/04 02:16:52;;;;;;;9.43;6.85;;;;;;;;;;5095221;28;20495;-84
2023/05/04 02:19:18;;;;;;;9.20;6.68;;;;;;;;;;5115775;28;20043;-84
2023/05/04 02:21:44;;;;;;;7.05;6.35;;;;;;;;;;5099301;28;20082;-84
2023/05/04 02:24:10;;;;;;;7.45;6.75;;;;;;;;;;5117003;28;20043;-84
2023/05/04 02:26:37;;;;;;;8.23;6.53;;;;;;;;;;5117102;28;20419;-84
2023/05/04 02:29:04;;;;;;;8.13;7.35;;;;;;;;;;5098445;28;20047;-84
2023/05/04 02:31:30;;;;;;;9.70;7.47;;;;;;;;;;5116800;28;20094;-84
2023/05/04 02:33:56;;;;;;;10.93;7.03;;;;;;;;;;5116836;28;20139;-84
2023/05/04 02:36:23;;;;;;;10.18;7.57;;;;;;;;;;5098671;28;20076;-84
2023/05/04 02:38:50;;;;;;;9.57;7.32;;;;;;;;;;5098742;28;20077;-84
2023/05/04 02:41:16;;;;;;;8.57;7.00;;;;;;;;;;5098513;28;20511;-84
2023/05/04 02:43:42;;;;;;;9.32;7.45;;;;;;;;;;5098445;28;20046;-84
2023/05/04 02:46:08;;;;;;;11.60;8.00;;;;;;;;;;5098367;28;20047;-84
2023/05/04 02:48:34;;;;;;;8.07;7.20;;;;;;;;;;5116622;28;20083;-84
2023/05/04 02:51:00;;;;;;;9.45;7.43;;;;;;;;;;5116481;28;20043;-84
2023/05/04 02:53:26;;;;;;;10.05;7.55;;;;;;;;;;5081753;28;20138;-84
2023/05/04 02:55:52;;;;;;;9.70;7.57;;;;;;;;;;5098586;28;20110;-84
2023/05/04 02:58:18;;;;;;;9.52;7.35;;;;;;;;;;5097769;28;20043;-84
2023/05/04 03:00:44;;;;;;;8.50;7.70;;;;;;;;;;5098217;28;20444;-84
2023/05/04 03:03:11;;;;;;;9.27;7.97;;;;;;;;;;5097930;28;20043;-84
2023/05/04 03:05:37;;;;;;;7.28;6.65;;;;;;;;;;5116320;28;20093;-84
2023/05/04 03:08:03;;;;;;;8.85;7.07;;;;;;;;;;5116142;28;20051;-84
2023/05/04 03:10:29;;;;;;;7.75;6.90;;;;;;;;;;5098231;28;20047;-84
2023/05/04 03:12:55;;;;;;;10.75;7.97;;;;;;;;;;5115770;28;20055;-84
2023/05/04 03:15:21;;;;;;;9.65;7.45;;;;;;;;;;5098110;28;20047;-84
2023/05/04 03:17:47;;;;;;;7.40;6.70;;;;;;;;;;5115755;28;20054;-84
2023/05/04 03:20:14;;;;;;;10.35;7.85;;;;;;;;;;5115973;28;20045;-83
2023/05/04 03:22:40;;;;;;;9.85;7.20;;;;;;;;;;5098127;28;20093;-85
2023/05/04 03:25:06;;;;;;;9.32;7.63;;;;;;;;;;5116366;28;20058;-84
2023/05/04 03:27:32;;;;;;;10.52;7.45;;;;;;;;;;5081976;28;20055;-84
2023/05/04 03:29:58;;;;;;;7.57;6.72;;;;;;;;;;5080905;28;20083;-84
2023/05/04 03:32:25;;;;;;;10.73;7.78;;;;;;;;;;5097373;28;20040;-84
2023/05/04 03:34:51;;;;;;;9.20;7.57;;;;;;;;;;5097827;28;20047;-84
2023/05/04 03:37:17;;;;;;;9.32;7.30;;;;;;;;;;5098385;28;20052;-85
2023/05/04 03:39:43;;;;;;;8.70;7.90;;;;;;;;;;5098117;28;20059;-85
2023/05/04 03:42:09;;;;;;;10.55;7.38;;;;;;;;;;5097776;28;20086;-84
2023/05/04 03:44:35;;;;;;;11.15;8.45;;;;;;;;;;5080808;28;20050;-84
2023/05/04 03:47:01;;;;;;;12.18;8.65;;;;;;;;;;5115561;28;20044;-84
2023/05/04 03:49:27;;;;;;;10.50;8.38;;;;;;;;;;5080646;28;20092;-84
2023/05/04 03:51:53;;;;;;;10.68;7.57;;;;;;;;;;5097087;28;20146;-84
2023/05/04 03:54:19;;;;;;;8.40;7.07;;;;;;;;;;5115421;28;20048;-85
2023/05/04 03:56:45;;;;;;;9.73;7.80;;;;;;;;;;5080670;28;20054;-84
2023/05/04 03:59:11;;;;;;;11.35;8.73;;;;;;;;;;5096777;28;20079;-84
2023/05/04 04:01:38;;;;;;;9.48;8.43;;;;;;;;;;5097142;28;20491;-85
2023/05/04 04:04:04;;;;;;;11.13;8.57;;;;;;;;;;5115280;28;20051;-84
2023/05/04 04:06:30;;;;;;;10.52;7.75;;;;;;;;;;5096993;28;20051;-84
2023/05/04 04:08:56;;;;;;;12.15;8.95;;;;;;;;;;5080734;28;20044;-84
2023/05/04 04:11:22;;;;;;;9.80;8.75;;;;;;;;;;5096971;28;20051;-84
2023/05/04 04:13:49;;;;;;;14.63;8.95;;;;;;;;;;5097074;28;20052;-84
2023/05/04 04:16:15;;;;;;;11.10;7.82;;;;;;;;;;5097248;28;20487;-84
2023/05/04 04:18:41;;;;;;;10.60;8.48;;;;;;;;;;5096964;28;20047;-84
2023/05/04 04:21:08;;;;;;;10.45;8.25;;;;;;;;;;5096799;28;20086;-84
2023/05/04 04:23:35;;;;;;;10.43;8.00;;;;;;;;;;5096903;28;20122;-84
2023/05/04 04:26:01;;;;;;;11.48;8.38;;;;;;;;;;5114860;28;20047;-84
2023/05/04 04:28:27;;;;;;;12.10;9.27;;;;;;;;;;5114244;28;20105;-85
2023/05/04 04:30:53;;;;;;;12.18;9.30;;;;;;;;;;5096619;28;20048;-85
2023/05/04 04:33:20;;;;;;;12.60;9.18;;;;;;;;;;5096835;28;20047;-84
2023/05/04 04:35:46;;;;;;;10.70;8.73;;;;;;;;;;5096791;28;20125;-84
2023/05/04 04:38:12;;;;;;;12.57;8.38;;;;;;;;;;5114518;28;20051;-84
2023/05/04 04:40:38;;;;;;;10.88;8.30;;;;;;;;;;5096214;28;20043;-84
2023/05/04 04:43:04;;;;;;;13.73;9.57;;;;;;;;;;5096580;28;20061;-84
2023/05/04 04:45:30;;;;;;;10.43;9.13;;;;;;;;;;5114451;28;20509;-84
2023/05/04 04:47:56;;;;;;;14.10;9.65;;;;;;;;;;5080106;28;20091;-84
2023/05/04 04:50:23;;;;;;;11.98;9.25;;;;;;;;;;5097287;28;20035;-85
2023/05/04 04:52:49;;;;;;;14.00;9.02;;;;;;;;;;5114299;28;20501;-84
2023/05/04 04:55:16;;;;;;;11.02;9.45;;;;;;;;;;5114432;28;20403;-84
2023/05/04 04:57:42;;;;;;;11.30;9.15;;;;;;;;;;5114261;28;20047;-84
2023/05/04 05:00:09;;;;;;;12.40;9.38;;;;;;;;;;5096204;28;20047;-84
2023/05/04 05:02:35;;;;;;;10.40;9.35;;;;;;;;;;5114626;28;20039;-84
2023/05/04 05:05:02;;;;;;;10.30;8.88;;;;;;;;;;5097698;28;20047;-85
2023/05/04 05:07:28;;;;;;;10.38;9.27;;;;;;;;;;5114963;28;20084;-84
2023/05/04 05:09:54;;;;;;;11.75;9.10;;;;;;;;;;5079471;28;20107;-84
2023/05/04 05:12:20;;;;;;;11.93;10.23;;;;;;;;;;5095545;28;20059;-85
2023/05/04 05:14:46;;;;;;;11.85;10.50;;;;;;;;;;5114354;28;20055;-85
2023/05/04 05:17:12;;;;;;;13.43;9.65;;;;;;;;;;5114279;28;20176;-85
2023/05/04 05:19:38;;;;;;;11.07;9.93;;;;;;;;;;5096122;28;20051;-84
2023/05/04 05:22:04;;;;;;;12.65;10.40;;;;;;;;;;5096181;28;20044;-84
2023/05/04 05:24:31;;;;;;;10.57;9.48;;;;;;;;;;5114035;28;20051;-84
2023/05/04 05:26:57;;;;;;;11.65;10.45;;;;;;;;;;5095888;28;20054;-84
2023/05/04 05:29:23;;;;;;;12.18;9.20;;;;;;;;;;5079190;28;20040;-85
2023/05/04 05:31:49;;;;;;;14.10;10.23;;;;;;;;;;5095878;28;20040;-84
2023/05/04 05:34:15;;;;;;;11.35;9.40;;;;;;;;;;5095759;28;20047;-84
2023/05/04 05:36:42;;;;;;;13.20;10.02;;;;;;;;;;5078773;28;20529;-84
2023/05/04 05:39:08;;;;;;;11.30;9.13;;;;;;;;;;5078846;28;20079;-84
2023/05/04 05:41:34;;;;;;;13.93;9.90;;;;;;;;;;5095721;28;20383;-84
2023/05/04 05:44:00;;;;;;;14.10;10.13;;;;;;;;;;5113979;28;20054;-85
2023/05/04 05:46:27;;;;;;;12.80;9.52;;;;;;;;;;5095685;28;20044;-84
2023/05/04 05:48:53;;;;;;;10.90;9.77;;;;;;;;;;5113817;28;20051;-85
2023/05/04 05:51:19;;;;;;;10.00;8.70;;;;;;;;;;5113469;28;20380;-85
2023/05/04 05:53:46;;;;;;;15.00;9.45;;;;;;;;;;5097069;28;20051;-84
2023/05/04 05:56:13;;;;;;;9.85;8.85;;;;;;;;;;5117434;28;20180;-85
2023/05/04 05:58:39;;;;;;;13.20;8.73;;;;;;;;;;5099841;28;20054;-85
2023/05/04 06:01:05;;;;;;;10.52;9.40;;;;;;;;;;5083169;28;20048;-84
2023/05/04 06:03:31;;;;;;;12.18;8.90;;;;;;;;;;5117702;28;20384;-85
2023/05/04 06:05:58;;;;;;;10.32;9.30;;;;;;;;;;5117466;28;20134;-85
2023/05/04 06:08:24;;;;;;;11.48;9.80;;;;;;;;;;5082620;28;20055;-85
2023/05/04 06:10:50;;;;;;;10.68;9.40;;;;;;;;;;5098896;28;20050;-84
2023/05/04 06:13:16;;;;;;;10.70;9.60;;;;;;;;;;5099110;28;20130;-84
2023/05/04 06:15:49;;;;;;;11.60;8.98;;;;;;;;;;5099368;28;20075;-84
2023/05/04 06:18:16;;;;;;;10.70;9.60;;;;;;;;;;5099335;28;20125;-85
2023/05/04 06:20:42;;;;;;;13.18;9.45;;;;;;;;;;5099210;28;20047;-85
2023/05/04 06:23:08;;;;;;;9.73;8.82;;;;;;;;;;5098984;28;20094;-85
2023/05/04 06:25:34;;;;;;;11.57;9.20;;;;;;;;;;5099046;28;20089;-84
2023/05/04 06:28:01;;;;;;;11.27;10.07;;;;;;;;;;5098641;28;20048;-84
2023/05/04 06:30:27;;;;;;;10.40;9.15;;;;;;;;;;5098925;28;20560;-84
2023/05/04 06:32:53;;;;;;;10.23;9.10;;;;;;;;;;5075615;28;20048;-85
2023/05/04 06:35:19;;;;;;;13.00;9.68;;;;;;;;;;5078625;28;20040;-84
2023/05/04 06:37:45;;;;;;;11.85;8.90;;;;;;;;;;5078540;28;20059;-84
2023/05/04 06:40:11;;;;;;;9.73;8.70;;;;;;;;;;5061880;28;20472;-85
2023/05/04 06:42:38;;;;;;;10.13;8.70;;;;;;;;;;5078520;28;20052;-85
2023/05/04 06:45:04;;;;;;;13.15;8.45;;;;;;;;;;5078298;28;20044;-82
2023/05/04 06:47:30;;;;;;;9.23;8.18;;;;;;;;;;5081563;28;20039;-82
2023/05/04 06:49:56;;;;;;;12.20;8.75;;;;;;;;;;5116362;28;20488;-83
2023/05/04 06:52:22;;;;;;;13.02;9.07;;;;;;;;;;5098125;28;20165;-83
2023/05/04 06:54:48;;;;;;;12.50;8.38;;;;;;;;;;5098138;28;20047;-84
2023/05/04 06:57:15;;;;;;;10.80;8.27;;;;;;;;;;5081724;28;20050;-82
2023/05/04 06:59:41;;;;;;;8.82;7.93;;;;;;;;;;5081073;28;20098;-83
2023/05/04 07:02:07;;;;;;;11.95;7.88;;;;;;;;;;5116199;28;20096;-84
2023/05/04 07:04:33;;;;;;;10.02;8.02;;;;;;;;;;5097928;28;20057;-85
2023/05/04 07:06:59;;;;;;;9.85;8.10;;;;;;;;;;5098388;28;20487;-86
2023/05/04 07:09:25;;;;;;;15.23;8.77;;;;;;;;;;5098153;28;20396;-86
2023/05/04 07:11:51;;;;;;;7.78;7.18;;;;;;;;;;5098088;28;20044;-85
2023/05/04 07:14:17;;;;;;;8.50;7.55;;;;;;;;;;5098271;28;20054;-85
2023/05/04 07:16:43;;;;;;;8.75;6.93;;;;;;;;;;5098635;28;20040;-85
2023/05/04 07:19:10;;;;;;;8.43;7.65;;;;;;;;;;5064468;28;20052;-85
2023/05/04 07:21:36;;;;;;;8.77;7.80;;;;;;;;;;5098236;28;20059;-85
2023/05/04 07:24:03;;;;;;;9.07;7.47;;;;;;;;;;5117159;28;20054;-86
2023/05/04 07:26:29;;;;;;;8.55;7.70;;;;;;;;;;5082486;28;20085;-85
2023/05/04 07:28:55;;;;;;;9.50;6.82;;;;;;;;;;5115924;28;20053;-85
2023/05/04 07:31:21;;;;;;;8.48;7.50;;;;;;;;;;5081035;28;20043;-84
2023/05/04 07:33:47;;;;;;;9.95;7.30;;;;;;;;;;5115744;28;20067;-84
2023/05/04 07:36:13;;;;;;;9.30;7.15;;;;;;;;;;5096647;28;20051;-83
2023/05/04 07:38:40;;;;;;;8.30;7.25;;;;;;;;;;5080286;28;20062;-85
2023/05/04 07:41:06;;;;;;;8.82;7.28;;;;;;;;;;5080763;28;20083;-85
2023/05/04 07:43:32;;;;;;;8.13;7.22;;;;;;;;;;5097524;28;20047;-85
2023/05/04 07:45:58;;;;;;;8.13;7.30;;;;;;;;;;5097267;28;20066;-85
2023/05/04 07:48:24;;;;;;;12.55;6.85;;;;;;;;;;5080575;28;20047;-85
2023/05/04 07:50:50;;;;;;;7.00;6.50;;;;;;;;;;5097298;28;20044;-86
2023/05/04 07:53:16;;;;;;;7.40;6.65;;;;;;;;;;5115479;28;20383;-85
2023/05/04 07:55:42;;;;;;;9.32;6.20;;;;;;;;;;5097368;28;20147;-86
2023/05/04 07:58:08;;;;;;;7.82;7.03;;;;;;;;;;5097000;28;20044;-85
2023/05/04 08:00:35;;;;;;;8.90;6.97;;;;;;;;;;5080679;28;20054;-85
2023/05/04 08:03:01;;;;;;;8.32;6.43;;;;;;;;;;5096805;28;20460;-85
2023/05/04 08:05:27;;;;;;;7.53;6.78;;;;;;;;;;5096791;28;20044;-85
2023/05/04 08:07:53;;;;;;;7.57;5.93;;;;;;;;;;5080125;28;20055;-85
2023/05/04 08:10:19;;;;;;;7.72;6.35;;;;;;;;;;5079675;28;20123;-85
2023/05/04 08:12:46;;;;;;;6.72;6.07;;;;;;;;;;5075946;28;20055;-85
2023/05/04 08:15:13;;;;;;;6.93;6.22;;;;;;;;;;5093192;28;20126;-84
2023/05/04 08:17:39;;;;;;;7.63;6.63;;;;;;;;;;5076150;28;20047;-84
2023/05/04 08:20:06;;;;;;;10.30;6.25;;;;;;;;;;5093340;28;20083;-84
2023/05/04 08:22:33;;;;;;;7.03;5.93;;;;;;;;;;5076738;28;20443;-84
2023/05/04 08:24:59;;;;;;;5.80;5.07;;;;;;;;;;5093647;28;20087;-85
2023/05/04 08:27:25;;;;;;;6.68;5.82;;;;;;;;;;5093551;28;20472;-85
2023/05/04 08:29:51;;;;;;;6.80;5.22;;;;;;;;;;5094164;28;20058;-85
2023/05/04 08:32:17;;;;;;;5.85;5.28;;;;;;;;;;5076165;28;20048;-86
2023/05/04 08:34:43;;;;;;;6.47;5.38;;;;;;;;;;5076295;28;20090;-85
2023/05/04 08:37:09;;;;;;;7.70;5.40;;;;;;;;;;5094206;28;20048;-85
2023/05/04 08:39:36;;;;;;;8.50;5.38;;;;;;;;;;5093264;28;20048;-85
2023/05/04 08:42:02;;;;;;;5.03;4.72;;;;;;;;;;5093340;28;20055;-85
2023/05/04 08:44:30;;;;;;;5.82;5.05;;;;;;;;;;5093204;28;20040;-86
2023/05/04 08:46:56;;;;;;;5.43;4.95;;;;;;;;;;5092751;28;20422;-85
2023/05/04 08:49:23;;;;;;;9.20;5.53;;;;;;;;;;5092750;28;20098;-85
2023/05/04 08:51:50;;;;;;;5.30;4.80;;;;;;;;;;5092847;28;20109;-85
2023/05/04 08:54:16;;;;;;;9.07;4.80;;;;;;;;;;5094161;28;20407;-85
2023/05/04 08:56:44;;;;;;;5.80;4.70;;;;;;;;;;5092777;28;20132;-85
2023/05/04 08:59:16;;;;;;;5.13;4.63;;;;;;;;;;5092677;28;20048;-85
2023/05/04 09:01:44;;;;;;;4.88;4.45;;;;;;;;;;5092912;28;20048;-85
2023/05/04 09:04:10;;;;;;;8.25;5.03;;;;;;;;;;5094117;28;20438;-85
2023/05/04 09:06:36;;;;;;;5.30;4.60;;;;;;;;;;5092584;28;20051;-85
2023/05/04 09:09:03;;;;;;;7.65;4.63;;;;;;;;;;5093820;28;20468;-85
2023/05/04 09:11:30;;;;;;;6.85;4.45;;;;;;;;;;5092392;28;20541;-86
2023/05/04 09:13:56;;;;;;;4.88;4.32;;;;;;;;;;5109408;28;20134;-85
2023/05/04 09:16:22;;;;;;;5.88;4.70;;;;;;;;;;5095906;28;20100;-85
2023/05/04 09:18:48;;;;;;;5.40;4.82;;;;;;;;;;5114203;28;20048;-85
2023/05/04 09:21:15;;;;;;;8.32;4.38;;;;;;;;;;5096004;28;20151;-85
2023/05/04 09:23:46;;;;;;;6.25;4.50;;;;;;;;;;5079299;28;20434;-85
2023/05/04 09:26:12;;;;;;;5.18;4.30;;;;;;;;;;5095932;28;20047;-85
2023/05/04 09:28:38;;;;;;;5.38;4.88;;;;;;;;;;5116666;28;20039;-85
2023/05/04 09:31:06;;;;;;;11.65;5.18;;;;;;;;;;5100038;28;20088;-85
2023/05/04 09:33:32;;;;;;;6.15;4.32;;;;;;;;;;5100136;28;20050;-85
2023/05/04 09:36:14;;;;;;;6.07;4.88;;;;;;;;;;5118172;28;20181;-84
2023/05/04 09:38:40;;;;;;;16.23;5.57;;;;;;;;;;5100083;28;20036;-85
2023/05/04 09:41:06;;;;;;;7.65;4.55;;;;;;;;;;5083169;28;20048;-85
2023/05/04 09:43:43;;;;;;;4.25;3.85;;;;;;;;;;5099635;28;20044;-84
2023/05/04 09:46:20;;;;;;;4.93;4.43;;;;;;;;;;5099426;28;20479;-84
2023/05/04 09:48:53;;;;;;;7.07;4.47;;;;;;;;;;5099802;28;20047;-85
2023/05/04 09:51:22;;;;;;;5.38;4.25;;;;;;;;;;5082730;28;20153;-85
2023/05/04 09:53:51;;;;;;;9.18;4.32;;;;;;;;;;5099533;28;20044;-84
2023/05/04 09:56:26;;;;;;;3.75;3.40;;;;;;;;;;5117650;28;20070;-84
2023/05/04 09:58:57;;;;;;;5.63;3.53;;;;;;;;;;5099265;28;20127;-85
2023/05/04 10:01:25;;;;;;;6.97;3.50;;;;;;;;;;5099739;28;20498;-84
2023/05/04 10:03:52;;;;;;;4.30;3.95;;;;;;;;;;5099155;28;20444;-84
2023/05/04 10:06:20;;;;;;;7.68;4.35;;;;;;;;;;5117327;28;20103;-84
2023/05/04 10:08:48;;;;;;;4.40;3.88;;;;;;;;;;5098962;28;20444;-84
2023/05/04 10:11:14;;;;;;;4.03;3.28;;;;;;;;;;5099176;28;20040;-84
2023/05/04 10:13:40;;;;;;;9.10;4.18;;;;;;;;;;5095809;28;20464;-84
2023/05/04 10:16:23;;;;;;;5.45;3.40;;;;;;;;;;5096805;28;20052;-84
2023/05/04 10:19:08;;;;;;;14.30;4.00;;;;;;;;;;5095878;28;20061;-85
2023/05/04 10:21:43;;;;;;;5.03;3.15;;;;;;;;;;5096034;28;20063;-84
2023/05/04 10:24:29;;;;;;;5.38;3.40;;;;;;;;;;5096877;28;20039;-84
2023/05/04 10:27:25;;;;;;;5.03;3.15;;;;;;;;;;5095529;28;20088;-84
2023/05/04 10:29:52;;;;;;;6.32;3.42;;;;;;;;;;5086394;28;20056;-84
2023/05/04 10:32:21;;;;;;;4.25;3.80;;;;;;;;;;5096599;28;20544;-84
2023/05/04 10:34:48;;;;;;;4.65;3.13;;;;;;;;;;5095613;28;20054;-84
2023/05/04 10:37:18;;;;;;;5.35;3.28;;;;;;;;;;5095849;28;20052;-84
2023/05/04 10:39:51;;;;;;;4.43;3.17;;;;;;;;;;5095476;28;20123;-84
2023/05/04 10:42:17;;;;;;;7.78;3.42;;;;;;;;;;5062099;28;20144;-84
2023/05/04 10:44:56;;;;;;;6.57;3.28;;;;;;;;;;5096717;28;20044;-84
2023/05/04 10:47:32;;;;;;;5.78;3.45;;;;;;;;;;5095335;28;20048;-84
2023/05/04 10:50:03;;;;;;;5.00;3.10;;;;;;;;;;5095106;28;20075;-84
2023/05/04 10:52:29;;;;;;;4.97;3.63;;;;;;;;;;5095281;28;20052;-84
2023/05/04 10:54:59;;;;;;;4.13;3.67;;;;;;;;;;5095702;28;20048;-84
2023/05/04 10:57:27;;;;;;;4.47;2.08;;;;;;;;;;5095039;28;20048;-84
2023/05/04 10:59:55;;;;;;;5.18;2.22;;;;;;;;;;5094450;28;20051;-85
2023/05/04 11:02:25;;;;;;;2.95;1.70;;;;;;;;;;5094859;28;20399;-84
2023/05/04 11:05:05;;;;;;;4.63;1.65;;;;;;;;;;5094935;28;20135;-84
2023/05/04 11:07:36;;;;;;;2.65;1.02;;;;;;;;;;5095398;28;20052;-84
2023/05/04 11:10:07;;;;;;;4.90;1.25;;;;;;;;;;5095760;28;20122;-85
2023/05/04 11:12:33;;;;;;;3.42;1.48;;;;;;;;;;5096491;28;20044;-85
2023/05/04 11:15:09;;;;;;;2.92;1.40;;;;;;;;;;5098511;28;20052;-85
2023/05/04 11:17:49;;;;;;;3.58;1.50;;;;;;;;;;5098183;28;20086;-85
2023/05/04 11:20:22;;;;;;;3.22;1.48;;;;;;;;;;5097917;28;20047;-85
2023/05/04 11:22:48;;;;;;;3.40;1.17;;;;;;;;;;5097921;28;20076;-84
2023/05/04 11:25:15;;;;;;;2.30;1.27;;;;;;;;;;5097949;28;20050;-84
2023/05/04 11:27:42;;;;;;;3.53;1.35;;;;;;;;;;5115606;28;20083;-85
2023/05/04 11:30:09;;;;;;;4.35;1.30;;;;;;;;;;5097523;28;20120;-86
2023/05/04 11:32:50;;;;;;;3.22;1.10;;;;;;;;;;5097686;28;20423;-85
2023/05/04 11:35:18;;;;;;;5.15;1.88;;;;;;;;;;5097472;28;20462;-85
2023/05/04 11:37:45;;;;;;;2.15;0.80;;;;;;;;;;5115445;28;20051;-84
2023/05/04 11:40:18;;;;;;;2.33;0.93;;;;;;;;;;5097625;28;20044;-85
2023/05/04 11:42:45;;;;;;;5.90;1.20;;;;;;;;;;5097907;28;20095;-84
2023/05/04 11:45:16;;;;;;;3.40;1.15;;;;;;;;;;5097594;28;20079;-85
2023/05/04 11:47:43;;;;;;;6.20;0.93;;;;;;;;;;5115480;28;20043;-84
2023/05/04 11:50:10;;;;;;;3.45;0.70;;;;;;;;;;5080310;28;20423;-85
2023/05/04 11:52:39;;;;;;;3.80;0.80;;;;;;;;;;5096587;28;20040;-85
2023/05/04 11:55:06;;;;;;;2.55;0.80;;;;;;;;;;5097812;28;20051;-85
2023/05/04 11:57:35;;;;;;;4.95;1.20;;;;;;;;;;5097533;28;20527;-84
2023/05/04 12:00:03;;;;;;;1.67;1.17;;;;;;;;;;5097085;28;20082;-85
2023/05/04 12:02:29;;;;;;;3.83;1.00;;;;;;;;;;5080005;28;20054;-85
2023/05/04 12:04:55;;;;;;;4.50;1.20;;;;;;;;;;5115030;28;20073;-85
2023/05/04 12:07:21;;;;;;;5.03;1.17;;;;;;;;;;5096872;28;20040;-84
2023/05/04 12:09:48;;;;;;;1.98;0.77;;;;;;;;;;5097603;28;20112;-84
2023/05/04 12:12:15;;;;;;;3.40;1.48;;;;;;;;;;5096794;28;20096;-85
2023/05/04 12:14:47;;;;;;;2.20;1.00;;;;;;;;;;5115084;28;20139;-84
2023/05/04 12:17:13;;;;;;;3.20;1.20;;;;;;;;;;5096688;28;20058;-84
2023/05/04 12:19:56;;;;;;;2.00;1.17;;;;;;;;;;5096776;28;20090;-84
2023/05/04 12:22:28;;;;;;;4.60;1.63;;;;;;;;;;5114884;28;20036;-84
2023/05/04 12:24:57;;;;;;;5.35;1.30;;;;;;;;;;5079868;28;20074;-85
2023/05/04 12:27:24;;;;;;;3.33;1.52;;;;;;;;;;5096561;28;20051;-84
2023/05/04 12:29:50;;;;;;;3.80;1.15;;;;;;;;;;5095949;28;20087;-85
2023/05/04 12:32:17;;;;;;;4.10;1.15;;;;;;;;;;5114375;28;20040;-84
2023/05/04 12:34:43;;;;;;;7.28;1.48;;;;;;;;;;5096544;28;20043;-85
2023/05/04 12:37:10;;;;;;;1.67;1.00;;;;;;;;;;5096295;28;20047;-85
2023/05/04 12:39:36;;;;;;;3.55;1.27;;;;;;;;;;5114390;28;20126;-84
2023/05/04 12:42:03;;;;;;;3.92;1.65;;;;;;;;;;5096585;28;20109;-84
2023/05/04 12:44:29;;;;;;;3.53;1.40;;;;;;;;;;5096476;28;20051;-84
2023/05/04 12:46:55;;;;;;;2.80;1.20;;;;;;;;;;5096453;28;20083;-84
2023/05/04 12:49:22;;;;;;;4.60;1.38;;;;;;;;;;5096111;28;20068;-85
2023/05/04 12:51:50;;;;;;;5.78;1.00;;;;;;;;;;5096210;28;20043;-85
2023/05/04 12:54:16;;;;;;;2.17;1.15;;;;;;;;;;5096684;28;20077;-85
2023/05/04 12:56:42;;;;;;;1.50;1.20;;;;;;;;;;5096109;28;20124;-85
2023/05/04 12:59:09;;;;;;;5.22;1.77;;;;;;;;;;5113763;28;20065;-85
2023/05/04 13:01:35;;;;;;;2.00;1.80;;;;;;;;;;5095408;28;20100;-85
2023/05/04 13:04:02;;;;;;;3.85;1.55;;;;;;;;;;5095962;28;20039;-85
2023/05/04 13:06:28;;;;;;;2.78;1.15;;;;;;;;;;5096304;28;20051;-84
2023/05/04 13:08:54;;;;;;;6.03;1.48;;;;;;;;;;5114165;28;20092;-84
2023/05/04 13:11:20;;;;;;;3.25;1.17;;;;;;;;;;5095780;28;20036;-85
2023/05/04 13:13:48;;;;;;;2.53;1.42;;;;;;;;;;5113348;28;21328;-85
2023/05/04 13:16:14;;;;;;;4.13;1.55;;;;;;;;;;5095779;28;20055;-85
2023/05/04 13:18:41;;;;;;;2.92;1.10;;;;;;;;;;5096164;28;20113;-84
2023/05/04 13:21:07;;;;;;;6.53;1.40;;;;;;;;;;5079389;28;20043;-85
2023/05/04 13:23:33;;;;;;;3.67;1.27;;;;;;;;;;5113976;28;20040;-85
2023/05/04 13:25:59;;;;;;;2.88;0.98;;;;;;;;;;5079237;28;20044;-85
2023/05/04 13:28:25;;;;;;;2.72;1.58;;;;;;;;;;5113906;28;20134;-85
2023/05/04 13:30:51;;;;;;;6.18;1.20;;;;;;;;;;5113328;28;20055;-85
2023/05/04 13:33:18;;;;;;;4.38;1.10;;;;;;;;;;5079303;28;20063;-85
2023/05/04 13:35:44;;;;;;;5.20;1.30;;;;;;;;;;5095686;28;20090;-86
2023/05/04 13:38:11;;;;;;;4.93;1.20;;;;;;;;;;5079041;28;20062;-85
2023/05/04 13:40:37;;;;;;;4.55;1.42;;;;;;;;;;5095869;28;20197;-85
2023/05/04 13:43:03;;;;;;;2.85;1.33;;;;;;;;;;5095677;28;20384;-85
2023/05/04 13:45:29;;;;;;;4.88;1.42;;;;;;;;;;5095414;28;20044;-85
2023/05/04 13:47:56;;;;;;;3.88;1.10;;;;;;;;;;5095716;28;20388;-85
2023/05/04 13:50:22;;;;;;;2.25;1.25;;;;;;;;;;5078892;28;20047;-85
2023/05/04 13:52:48;;;;;;;2.08;1.48;;;;;;;;;;5078549;28;20051;-85
2023/05/04 13:55:15;;;;;;;3.75;1.70;;;;;;;;;;5078772;28;20079;-85
2023/05/04 13:57:41;;;;;;;2.67;1.48;;;;;;;;;;5095422;28;20039;-85
2023/05/04 14:00:08;;;;;;;5.07;1.52;;;;;;;;;;5095002;28;20134;-85
2023/05/04 14:02:34;;;;;;;1.92;1.27;;;;;;;;;;5095622;28;20499;-85
2023/05/04 14:05:00;;;;;;;4.10;1.65;;;;;;;;;;5113446;28;20506;-85
2023/05/04 14:07:26;;;;;;;4.28;1.52;;;;;;;;;;5095558;28;20052;-85
2023/05/04 14:09:52;;;;;;;2.30;1.30;;;;;;;;;;5095407;28;20055;-85
2023/05/04 14:12:19;;;;;;;4.00;1.23;;;;;;;;;;5113401;28;20039;-85
2023/05/04 14:14:45;;;;;;;2.58;1.42;;;;;;;;;;5096791;28;20070;-85
2023/05/04 14:17:11;;;;;;;2.33;1.50;;;;;;;;;;5099500;28;20051;-85
2023/05/04 14:19:37;;;;;;;2.47;1.27;;;;;;;;;;5082390;28;20052;-85
2023/05/04 14:22:03;;;;;;;5.50;1.70;;;;;;;;;;5099210;28;20051;-85
2023/05/04 14:24:30;;;;;;;3.85;1.30;;;;;;;;;;5099207;28;20122;-85
2023/05/04 14:26:56;;;;;;;1.90;1.02;;;;;;;;;;5116983;28;20063;-85
2023/05/04 14:29:22;;;;;;;1.90;0.95;;;;;;;;;;5099006;28;20050;-85
2023/05/04 14:31:48;;;;;;;2.20;1.02;;;;;;;;;;5098734;28;20040;-85
2023/05/04 14:34:14;;;;;;;4.28;1.48;;;;;;;;;;5117442;28;20058;-85
2023/05/04 14:36:40;;;;;;;3.55;1.33;;;;;;;;;;5098959;28;20046;-85
2023/05/04 14:39:07;;;;;;;3.17;1.13;;;;;;;;;;5116929;28;20044;-85